createdAt,value
2023-05-12T00:00:00.754Z,10.35
2023-05-12T00:02:02.356Z,10.33
2023-05-12T00:04:04.091Z,10.39
2023-05-12T00:06:06.660Z,10.27
2023-05-12T00:08:08.279Z,10.23
2023-05-12T00:10:10.113Z,10.27
2023-05-12T00:12:11.908Z,10.26
2023-05-12T00:14:13.652Z,10.34
2023-05-12T00:16:17.559Z,10.45
2023-05-12T00:18:19.223Z,10.36
2023-05-12T00:20:21.538Z,10.27
2023-05-12T00:22:23.487Z,10.25
2023-05-12T00:24:25.760Z,10.15
2023-05-12T00:26:27.707Z,10.10
2023-05-12T00:28:29.389Z,10.12
2023-05-12T00:30:31.108Z,10.13
2023-05-12T00:32:32.812Z,10.07
2023-05-12T00:34:34.421Z,10.06
2023-05-12T00:36:36.184Z,10.06
2023-05-12T00:38:38.219Z,10.02
2023-05-12T00:40:42.073Z,10.02
2023-05-12T00:42:43.883Z,10.03
2023-05-12T00:44:45.863Z,9.96
2023-05-12T00:46:47.602Z,9.97
2023-05-12T00:48:49.197Z,9.91
2023-05-12T00:50:50.914Z,9.87
2023-05-12T00:52:52.774Z,9.92
2023-05-12T00:54:55.035Z,9.96
2023-05-12T00:56:57.596Z,9.77
2023-05-12T00:58:59.174Z,9.80
2023-05-12T01:01:00.738Z,9.86
2023-05-12T01:03:02.801Z,9.86
2023-05-12T01:05:04.937Z,9.77
2023-05-12T01:07:19.595Z,9.61
2023-05-12T01:09:21.505Z,9.57
2023-05-12T01:11:23.578Z,9.62
2023-05-12T01:13:26.528Z,9.44
2023-05-12T01:15:29.828Z,9.37
2023-05-12T01:17:35.644Z,9.33
2023-05-12T01:19:51.910Z,9.30
2023-05-12T01:21:53.558Z,9.12
2023-05-12T01:23:58.915Z,9.14
2023-05-12T01:26:10.297Z,9.21
2023-05-12T01:28:12.754Z,9.17
2023-05-12T01:30:17.364Z,9.11
2023-05-12T01:32:19.323Z,9.10
2023-05-12T01:34:20.986Z,9.07
2023-05-12T01:36:22.553Z,9.01
2023-05-12T01:38:24.222Z,8.83
2023-05-12T01:40:25.868Z,8.81
2023-05-12T01:42:27.984Z,8.79
2023-05-12T01:44:29.601Z,8.79
2023-05-12T01:46:31.417Z,8.84
2023-05-12T01:48:33.141Z,8.89
2023-05-12T01:50:34.714Z,8.98
2023-05-12T01:52:36.315Z,8.98
2023-05-12T01:54:38.323Z,8.94
2023-05-12T01:56:40.022Z,8.78
2023-05-12T01:58:41.647Z,8.75
2023-05-12T02:00:43.277Z,8.79
2023-05-12T02:02:45.021Z,8.81
2023-05-12T02:04:46.692Z,8.76
2023-05-12T02:06:48.266Z,8.75
2023-05-12T02:08:49.878Z,8.70
2023-05-12T02:10:51.470Z,8.71
2023-05-12T02:12:53.118Z,8.73
2023-05-12T02:14:54.676Z,8.61
2023-05-12T02:16:56.425Z,8.59
2023-05-12T02:18:58.026Z,8.60
2023-05-12T02:20:59.696Z,8.40
2023-05-12T02:23:02.209Z,8.42
2023-05-12T02:25:04.057Z,8.34
2023-05-12T02:27:06.063Z,8.22
2023-05-12T02:29:07.644Z,8.20
2023-05-12T02:31:09.469Z,8.24
2023-05-12T02:33:11.043Z,8.35
2023-05-12T02:35:12.605Z,8.27
2023-05-12T02:37:14.180Z,8.19
2023-05-12T02:39:15.891Z,8.13
2023-05-12T02:41:17.447Z,8.13
2023-05-12T02:43:19.067Z,8.04
2023-05-12T02:45:20.681Z,8.06
2023-05-12T02:47:22.319Z,8.12
2023-05-12T02:49:23.943Z,8.24
2023-05-12T02:51:25.534Z,8.20
2023-05-12T02:53:27.621Z,8.04
2023-05-12T02:55:30.301Z,8.01
2023-05-12T02:57:34.172Z,7.93
2023-05-12T02:59:36.058Z,7.88
2023-05-12T03:01:37.915Z,7.87
2023-05-12T03:03:39.749Z,7.70
2023-05-12T03:05:41.390Z,7.74
2023-05-12T03:07:43.040Z,7.74
2023-05-12T03:09:44.636Z,7.76
2023-05-12T03:11:46.368Z,7.81
2023-05-12T03:13:48.124Z,7.84
2023-05-12T03:15:49.790Z,7.86
2023-05-12T03:17:51.556Z,7.77
2023-05-12T03:19:53.194Z,7.79
2023-05-12T03:21:55.151Z,7.78
2023-05-12T03:23:57.416Z,7.85
2023-05-12T03:25:59.017Z,7.95
2023-05-12T03:28:03.628Z,8.10
2023-05-12T03:30:06.059Z,8.26
2023-05-12T03:32:08.699Z,8.31
2023-05-12T03:34:10.348Z,8.37
2023-05-12T03:36:11.935Z,8.45
2023-05-12T03:38:13.466Z,8.50
2023-05-12T03:40:18.749Z,8.46
2023-05-12T03:42:20.692Z,8.41
2023-05-12T03:44:22.367Z,8.47
2023-05-12T03:46:24.271Z,8.42
2023-05-12T03:48:26.328Z,8.46
2023-05-12T03:50:27.924Z,8.52
2023-05-12T03:52:29.545Z,8.61
2023-05-12T03:54:31.128Z,8.69
2023-05-12T03:56:32.982Z,8.75
2023-05-12T03:58:34.643Z,8.81
2023-05-12T04:00:36.180Z,8.79
2023-05-12T04:02:37.827Z,8.82
2023-05-12T04:04:39.578Z,8.76
2023-05-12T04:06:41.161Z,8.74
2023-05-12T04:08:42.787Z,8.74
2023-05-12T04:10:44.366Z,8.70
2023-05-12T04:12:46.077Z,8.72
2023-05-12T04:14:48.331Z,8.61
2023-05-12T04:16:50.077Z,8.51
2023-05-12T04:18:51.963Z,8.58
2023-05-12T04:20:54.259Z,8.61
2023-05-12T04:22:56.821Z,8.60
2023-05-12T04:24:58.450Z,8.65
2023-05-12T04:27:00.583Z,8.68
2023-05-12T04:29:02.169Z,8.73
2023-05-12T04:31:04.634Z,8.73
2023-05-12T04:33:06.505Z,8.73
2023-05-12T04:35:08.694Z,8.81
2023-05-12T04:37:10.274Z,8.90
2023-05-12T04:39:12.987Z,8.96
2023-05-12T04:41:14.570Z,9.06
2023-05-12T04:45:21.074Z,9.06
2023-05-12T04:47:22.966Z,9.12
2023-05-12T04:49:24.637Z,9.06
2023-05-12T04:51:26.339Z,8.98
2023-05-12T04:53:28.123Z,9.03
2023-05-12T04:55:31.143Z,9.10
2023-05-12T04:57:32.696Z,8.92
2023-05-12T04:59:34.610Z,8.98
2023-05-12T05:01:36.238Z,8.98
2023-05-12T05:03:38.028Z,9.00
2023-05-12T05:05:39.671Z,9.07
2023-05-12T05:07:41.257Z,9.14
2023-05-12T05:09:42.810Z,9.14
2023-05-12T05:11:44.426Z,9.07
2023-05-12T05:13:46.028Z,9.11
2023-05-12T05:15:54.589Z,9.19
2023-05-12T05:17:56.300Z,9.23
2023-05-12T05:19:59.677Z,9.31
2023-05-12T05:22:01.599Z,9.35
2023-05-12T05:24:03.277Z,9.33
2023-05-12T05:26:05.004Z,9.27
2023-05-12T05:28:06.848Z,9.09
2023-05-12T05:30:09.292Z,9.16
2023-05-12T05:32:10.867Z,9.20
2023-05-12T05:34:12.583Z,9.09
2023-05-12T05:36:14.308Z,8.95
2023-05-12T05:38:15.992Z,8.92
2023-05-12T05:40:17.700Z,8.89
2023-05-12T05:42:19.300Z,8.87
2023-05-12T05:44:20.859Z,8.96
2023-05-12T05:46:22.500Z,9.00
2023-05-12T05:48:24.997Z,9.00
2023-05-12T05:50:26.609Z,9.06
2023-05-12T05:52:28.225Z,9.06
2023-05-12T05:54:29.895Z,9.00
2023-05-12T05:56:33.304Z,9.04
2023-05-12T05:58:34.885Z,9.13
2023-05-12T06:00:36.523Z,9.10
2023-05-12T06:02:38.286Z,9.17
2023-05-12T06:04:39.929Z,9.13
2023-05-12T06:06:41.570Z,9.14
2023-05-12T06:08:43.192Z,9.19
2023-05-12T06:10:44.791Z,9.18
2023-05-12T06:12:46.474Z,9.18
2023-05-12T06:14:48.081Z,9.33
2023-05-12T06:16:49.936Z,9.45
2023-05-12T06:18:51.626Z,9.53
2023-05-12T06:20:53.444Z,9.60
2023-05-12T06:22:55.008Z,9.56
2023-05-12T06:24:56.711Z,9.53
2023-05-12T06:26:58.308Z,9.48
2023-05-12T06:28:59.877Z,9.51
2023-05-12T06:31:01.443Z,9.48
2023-05-12T06:33:03.125Z,9.54
2023-05-12T06:35:05.129Z,9.64
2023-05-12T06:37:06.765Z,9.77
2023-05-12T06:39:08.648Z,9.75
2023-05-12T06:41:10.338Z,9.56
2023-05-12T06:43:13.098Z,9.63
2023-05-12T06:45:14.867Z,9.76
2023-05-12T06:47:16.455Z,9.88
2023-05-12T06:49:18.121Z,9.88
2023-05-12T06:51:19.722Z,9.90
2023-05-12T06:53:23.368Z,9.96
2023-05-12T06:55:26.580Z,9.99
2023-05-12T06:57:28.246Z,10.08
2023-05-12T06:59:30.860Z,10.03
2023-05-12T07:01:32.766Z,9.84
2023-05-12T07:03:34.792Z,9.82
2023-05-12T07:05:36.596Z,9.92
2023-05-12T07:07:38.258Z,10.01
2023-05-12T07:09:41.620Z,10.09
2023-05-12T07:11:43.281Z,10.15
2023-05-12T07:13:44.848Z,10.05
2023-05-12T07:15:46.429Z,10.09
2023-05-12T07:17:48.132Z,10.08
2023-05-12T07:19:49.712Z,10.07
2023-05-12T07:21:51.381Z,10.13
2023-05-12T07:23:53.086Z,10.18
2023-05-12T07:25:54.818Z,10.16
2023-05-12T07:27:56.432Z,10.23
2023-05-12T07:29:57.991Z,10.22
2023-05-12T07:31:59.807Z,10.10
2023-05-12T07:34:01.375Z,10.09
2023-05-12T07:36:04.755Z,10.19
2023-05-12T07:38:06.509Z,10.19
2023-05-12T07:40:08.573Z,10.23
2023-05-12T07:42:11.145Z,10.37
2023-05-12T07:44:12.783Z,10.55
2023-05-12T07:46:14.408Z,10.71
2023-05-12T07:48:16.085Z,10.31
2023-05-12T07:50:19.033Z,10.24
2023-05-12T07:52:20.811Z,10.32
2023-05-12T07:54:22.437Z,10.50
2023-05-12T07:56:24.537Z,10.54
2023-05-12T07:58:26.229Z,10.57
2023-05-12T08:00:28.197Z,10.47
2023-05-12T08:02:29.903Z,10.57
2023-05-12T08:04:31.810Z,10.76
2023-05-12T08:06:33.770Z,10.74
2023-05-12T08:08:36.596Z,10.80
2023-05-12T08:10:38.161Z,10.87
2023-05-12T08:12:40.821Z,10.74
2023-05-12T08:14:42.437Z,10.89
2023-05-12T08:16:46.525Z,11.09
2023-05-12T08:18:48.335Z,11.36
2023-05-12T08:20:50.604Z,11.37
2023-05-12T08:22:52.739Z,11.24
2023-05-12T08:24:54.315Z,11.01
2023-05-12T08:26:55.936Z,11.26
2023-05-12T08:28:57.571Z,11.39
2023-05-12T08:30:59.268Z,11.30
2023-05-12T08:33:01.764Z,11.23
2023-05-12T08:35:03.905Z,11.27
2023-05-12T08:37:06.475Z,11.42
2023-05-12T08:39:10.300Z,11.64
2023-05-12T08:41:13.660Z,11.72
2023-05-12T08:43:26.165Z,11.87
2023-05-12T08:45:27.819Z,11.95
2023-05-12T08:47:29.466Z,11.67
2023-05-12T08:49:31.688Z,11.63
2023-05-12T08:51:33.449Z,11.76
2023-05-12T08:53:34.903Z,11.94
2023-05-12T08:55:36.369Z,12.09
2023-05-12T08:57:39.516Z,12.19
2023-05-12T08:59:42.571Z,12.30
2023-05-12T09:01:44.975Z,12.34
2023-05-12T09:03:46.596Z,12.15
2023-05-12T09:05:48.060Z,11.94
2023-05-12T09:07:49.630Z,11.77
2023-05-12T09:09:58.184Z,11.83
2023-05-12T09:11:59.737Z,12.12
2023-05-12T09:14:03.165Z,12.22
2023-05-12T09:16:04.708Z,12.13
2023-05-12T09:18:06.497Z,12.20
2023-05-12T09:20:13.115Z,12.32
2023-05-12T09:22:19.894Z,12.36
2023-05-12T09:24:22.435Z,12.46
2023-05-12T09:26:24.391Z,12.54
2023-05-12T09:28:34.012Z,12.49
2023-05-12T09:30:38.341Z,12.58
2023-05-12T09:32:40.006Z,12.42
2023-05-12T09:34:41.725Z,12.38
2023-05-12T09:36:43.198Z,12.40
2023-05-12T09:38:44.676Z,12.62
2023-05-12T09:40:46.176Z,12.85
2023-05-12T09:42:47.597Z,12.98
2023-05-12T09:44:49.748Z,13.10
2023-05-12T09:46:51.516Z,13.11
2023-05-12T09:48:55.428Z,12.93
2023-05-12T09:50:57.753Z,12.97
2023-05-12T09:52:59.164Z,12.97
2023-05-12T09:55:06.961Z,12.92
2023-05-12T09:57:09.152Z,13.00
2023-05-12T09:59:11.210Z,13.05
2023-05-12T10:01:22.619Z,12.95
2023-05-12T10:03:25.155Z,13.01
2023-05-12T10:05:26.590Z,13.23
2023-05-12T10:07:28.061Z,13.42
2023-05-12T10:09:31.906Z,13.61
2023-05-12T10:11:33.573Z,13.84
2023-05-12T10:13:35.100Z,13.77
2023-05-12T10:15:36.909Z,13.98
2023-05-12T10:17:38.591Z,14.13
2023-05-12T10:19:41.286Z,14.27
2023-05-12T10:21:43.265Z,14.26
2023-05-12T10:23:44.705Z,14.43
2023-05-12T10:25:46.204Z,14.44
2023-05-12T10:27:48.304Z,14.57
2023-05-12T10:29:51.346Z,14.70
2023-05-12T10:31:53.531Z,14.83
2023-05-12T10:33:58.716Z,14.84
2023-05-12T10:36:00.371Z,14.73
2023-05-12T10:38:04.367Z,14.54
2023-05-12T10:40:06.676Z,14.63
2023-05-12T10:42:08.596Z,14.73
2023-05-12T10:44:13.550Z,14.90
2023-05-12T10:46:15.169Z,15.09
2023-05-12T10:48:16.709Z,15.08
2023-05-12T10:50:28.000Z,15.18
2023-05-12T10:52:29.468Z,15.06
2023-05-12T10:54:31.629Z,15.11
2023-05-12T10:56:42.603Z,15.13
2023-05-12T10:59:04.727Z,15.12
2023-05-12T11:01:07.098Z,15.17
2023-05-12T11:03:11.949Z,15.26
2023-05-12T11:05:14.679Z,15.15
2023-05-12T11:07:16.956Z,15.05
2023-05-12T11:09:19.897Z,15.13
2023-05-12T11:11:22.553Z,15.26
2023-05-12T11:13:24.326Z,15.30
2023-05-12T11:15:25.877Z,15.25
2023-05-12T11:17:27.537Z,15.12
2023-05-12T11:19:29.058Z,14.93
2023-05-12T11:21:32.115Z,14.97
2023-05-12T11:23:33.819Z,14.86
2023-05-12T11:25:35.741Z,14.86
2023-05-12T11:27:42.435Z,14.72
2023-05-12T11:29:45.087Z,14.67
2023-05-12T11:31:50.370Z,14.56
2023-05-12T11:34:11.416Z,14.70
2023-05-12T11:36:14.607Z,14.73
2023-05-12T11:38:17.427Z,14.76
2023-05-12T11:40:19.672Z,14.79
2023-05-12T11:42:23.525Z,14.83
2023-05-12T11:44:26.646Z,14.84
2023-05-12T11:46:28.543Z,15.01
2023-05-12T11:48:36.135Z,15.02
2023-05-12T11:50:39.055Z,14.99
2023-05-12T11:52:40.534Z,14.92
2023-05-12T11:54:58.601Z,14.92
2023-05-12T11:57:01.334Z,14.97
2023-05-12T11:59:02.812Z,14.99
2023-05-12T12:01:11.973Z,15.01
2023-05-12T12:03:14.105Z,15.04
2023-05-12T12:05:19.089Z,14.99
2023-05-12T12:07:33.747Z,15.15
2023-05-12T12:09:40.631Z,15.19
2023-05-12T12:11:42.101Z,15.12
2023-05-12T12:13:48.129Z,15.18
2023-05-12T12:15:49.950Z,15.17
2023-05-12T12:17:51.486Z,15.02
2023-05-12T12:19:53.026Z,15.02
2023-05-12T12:21:54.938Z,15.13
2023-05-12T12:23:56.425Z,15.22
2023-05-12T12:25:57.912Z,15.13
2023-05-12T12:27:59.424Z,15.20
2023-05-12T12:30:00.892Z,15.18
2023-05-12T12:32:02.442Z,15.10
2023-05-12T12:34:04.422Z,15.01
2023-05-12T12:36:06.394Z,15.03
2023-05-12T12:38:08.908Z,15.04
2023-05-12T12:40:10.659Z,15.07
2023-05-12T12:42:13.401Z,15.05
2023-05-12T12:44:14.933Z,15.08
2023-05-12T12:46:16.422Z,15.13
2023-05-12T12:48:18.526Z,15.10
2023-05-12T12:50:19.988Z,15.07
2023-05-12T12:52:21.438Z,15.03
2023-05-12T12:54:23.098Z,14.96
2023-05-12T12:56:25.872Z,14.98
2023-05-12T12:58:27.815Z,14.98
2023-05-12T13:00:29.463Z,14.87
2023-05-12T13:02:31.034Z,14.88
2023-05-12T13:04:32.501Z,14.93
2023-05-12T13:06:34.007Z,15.02
2023-05-12T13:08:35.805Z,15.05
2023-05-12T13:10:37.869Z,15.02
2023-05-12T13:12:39.346Z,14.89
2023-05-12T13:14:40.931Z,14.93
2023-05-12T13:16:42.780Z,14.94
2023-05-12T13:18:45.919Z,14.99
2023-05-12T13:20:47.587Z,15.09
2023-05-12T13:22:49.038Z,15.07
2023-05-12T13:24:50.543Z,14.90
2023-05-12T13:26:51.998Z,14.93
2023-05-12T13:28:53.638Z,14.99
2023-05-12T13:30:55.319Z,14.98
2023-05-12T13:32:56.986Z,14.95
2023-05-12T13:34:58.515Z,15.09
2023-05-12T13:36:59.940Z,15.07
2023-05-12T13:39:02.815Z,15.03
2023-05-12T13:41:04.287Z,15.04
2023-05-12T13:43:05.752Z,15.03
2023-05-12T13:45:09.224Z,15.04
2023-05-12T13:47:10.857Z,15.10
2023-05-12T13:49:12.925Z,15.14
2023-05-12T13:51:14.619Z,15.12
2023-05-12T13:53:16.102Z,15.02
2023-05-12T13:55:21.408Z,15.02
2023-05-12T13:57:23.241Z,15.01
2023-05-12T13:59:24.757Z,15.10
2023-05-12T14:01:26.348Z,15.27
2023-05-12T14:03:27.903Z,15.34
2023-05-12T14:05:29.380Z,15.37
2023-05-12T14:07:31.025Z,15.36
2023-05-12T14:09:32.485Z,15.39
2023-05-12T14:11:34.306Z,15.43
2023-05-12T14:13:35.829Z,15.43
2023-05-12T14:15:48.097Z,15.44
2023-05-12T14:17:50.576Z,15.51
2023-05-12T14:19:52.052Z,15.68
2023-05-12T14:21:53.562Z,15.70
2023-05-12T14:23:55.080Z,15.73
2023-05-12T14:25:56.545Z,15.75
2023-05-12T14:27:58.151Z,15.69
2023-05-12T14:29:59.662Z,15.83
2023-05-12T14:32:03.030Z,15.73
2023-05-12T14:34:04.625Z,15.74
2023-05-12T14:36:08.111Z,15.70
2023-05-12T14:38:10.071Z,15.63
2023-05-12T14:40:12.372Z,15.65
2023-05-12T14:42:13.848Z,15.51
2023-05-12T14:44:15.389Z,15.31
2023-05-12T14:46:17.011Z,15.26
2023-05-12T14:48:18.467Z,15.25
2023-05-12T14:50:20.455Z,15.33
2023-05-12T14:52:22.058Z,15.39
2023-05-12T14:54:25.898Z,15.34
2023-05-12T14:56:27.671Z,15.34
2023-05-12T14:58:31.111Z,15.26
2023-05-12T15:00:33.435Z,15.23
2023-05-12T15:02:35.054Z,15.23
2023-05-12T15:04:36.597Z,15.29
2023-05-12T15:06:38.156Z,15.38
2023-05-12T15:08:39.605Z,15.41
2023-05-12T15:10:41.045Z,15.37
2023-05-12T15:12:42.477Z,15.54
2023-05-12T15:14:44.104Z,15.52
2023-05-12T15:16:45.685Z,15.48
2023-05-12T15:18:47.227Z,15.55
2023-05-12T15:20:48.704Z,15.65
2023-05-12T15:22:50.153Z,15.56
2023-05-12T15:24:51.716Z,15.56
2023-05-12T15:26:53.169Z,15.56
2023-05-12T15:28:54.699Z,15.56
2023-05-12T15:30:57.042Z,15.63
2023-05-12T15:32:58.616Z,15.48
2023-05-12T15:35:00.201Z,15.41
2023-05-12T15:37:02.037Z,15.41
2023-05-12T15:39:03.506Z,15.53
2023-05-12T15:41:05.105Z,15.55
2023-05-12T15:43:06.652Z,15.59
2023-05-12T15:45:09.604Z,15.82
2023-05-12T15:47:11.647Z,16.03
2023-05-12T15:49:13.190Z,16.09
2023-05-12T15:51:14.701Z,16.07
2023-05-12T15:53:16.168Z,16.07
2023-05-12T15:55:18.148Z,16.20
2023-05-12T15:57:20.109Z,16.26
2023-05-12T15:59:21.652Z,16.34
2023-05-12T16:01:23.519Z,16.42
2023-05-12T16:03:25.369Z,16.28
2023-05-12T16:05:27.015Z,16.14
2023-05-12T16:07:31.060Z,16.08
2023-05-12T16:09:32.570Z,16.07
2023-05-12T16:11:34.468Z,15.95
2023-05-12T16:13:35.988Z,16.04
2023-05-12T16:15:37.476Z,16.04
2023-05-12T16:17:39.031Z,15.90
2023-05-12T16:19:40.526Z,15.94
2023-05-12T16:21:45.154Z,15.79
2023-05-12T16:23:47.043Z,15.81
2023-05-12T16:25:48.463Z,15.92
2023-05-12T16:27:50.160Z,16.00
2023-05-12T16:29:53.587Z,16.09
2023-05-12T16:31:55.332Z,15.88
2023-05-12T16:33:57.220Z,15.81
2023-05-12T16:35:58.732Z,15.62
2023-05-12T16:38:00.209Z,15.65
2023-05-12T16:40:01.682Z,15.52
2023-05-12T16:42:03.328Z,15.50
2023-05-12T16:44:05.004Z,15.53
2023-05-12T16:46:06.690Z,15.44
2023-05-12T16:48:08.163Z,15.26
2023-05-12T16:50:09.766Z,15.32
2023-05-12T16:52:12.526Z,15.32
2023-05-12T16:54:14.128Z,15.31
2023-05-12T16:56:15.579Z,14.92
2023-05-12T16:58:17.067Z,14.66
2023-05-12T17:00:18.975Z,14.57
2023-05-12T17:02:20.651Z,14.51
2023-05-12T17:04:22.204Z,14.50
2023-05-12T17:06:23.698Z,14.36
2023-05-12T17:08:25.152Z,14.26
2023-05-12T17:10:26.877Z,14.22
2023-05-12T17:12:28.353Z,14.09
2023-05-12T17:14:29.983Z,13.94
2023-05-12T17:16:31.944Z,13.89
2023-05-12T17:20:54.860Z,13.79
2023-05-12T17:22:57.078Z,13.72
2023-05-12T17:24:58.534Z,13.60
2023-05-12T17:27:00.299Z,13.59
2023-05-12T17:29:02.165Z,13.64
2023-05-12T17:31:03.708Z,13.55
2023-05-12T17:33:05.341Z,13.44
2023-05-12T17:35:08.079Z,13.37
2023-05-12T17:37:09.604Z,13.32
2023-05-12T17:39:14.076Z,13.14
2023-05-12T17:41:16.255Z,13.14
2023-05-12T17:43:18.526Z,13.14
2023-05-12T17:45:20.399Z,13.12
2023-05-12T17:47:22.332Z,13.07
2023-05-12T17:49:23.907Z,13.05
2023-05-12T17:51:25.430Z,13.09
2023-05-12T17:53:26.914Z,13.15
2023-05-12T17:55:28.516Z,13.15
2023-05-12T17:57:29.991Z,13.18
2023-05-12T17:59:31.480Z,13.20
2023-05-12T18:01:33.004Z,13.21
2023-05-12T18:03:35.079Z,13.16
2023-05-12T18:05:36.817Z,13.07
2023-05-12T18:07:38.433Z,13.04
2023-05-12T18:09:39.906Z,12.94
2023-05-12T18:11:41.472Z,12.95
2023-05-12T18:13:42.897Z,12.98
2023-05-12T18:15:44.465Z,13.00
2023-05-12T18:17:46.322Z,12.97
2023-05-12T18:19:48.465Z,12.95
2023-05-12T18:21:53.197Z,12.93
2023-05-12T18:23:54.732Z,12.93
2023-05-12T18:25:56.440Z,12.89
2023-05-12T18:27:57.930Z,12.95
2023-05-12T18:29:59.395Z,12.94
2023-05-12T18:32:00.892Z,12.95
2023-05-12T18:34:02.406Z,12.93
2023-05-12T18:36:03.978Z,12.95
2023-05-12T18:38:07.159Z,12.96
2023-05-12T18:40:08.994Z,12.92
2023-05-12T18:42:11.039Z,12.91
2023-05-12T18:44:12.839Z,12.92
2023-05-12T18:46:14.380Z,12.94
2023-05-12T18:48:15.852Z,12.82
2023-05-12T18:50:17.754Z,12.81
2023-05-12T18:52:20.880Z,12.75
2023-05-12T18:54:22.316Z,12.83
2023-05-12T18:56:23.892Z,12.87
2023-05-12T18:58:25.775Z,12.84
2023-05-12T19:00:31.789Z,12.83
2023-05-12T19:02:34.561Z,12.75
2023-05-12T19:04:36.371Z,12.76
2023-05-12T19:06:37.908Z,12.76
2023-05-12T19:08:39.577Z,12.77
2023-05-12T19:10:41.103Z,12.77
2023-05-12T19:12:42.812Z,12.74
2023-05-12T19:14:44.646Z,12.75
2023-05-12T19:16:46.838Z,12.77
2023-05-12T19:18:48.425Z,12.73
2023-05-12T19:20:49.943Z,12.72
2023-05-12T19:22:51.424Z,12.74
2023-05-12T19:24:52.984Z,12.76
2023-05-12T19:26:54.424Z,12.78
2023-05-12T19:28:55.868Z,12.78
2023-05-12T19:30:57.456Z,12.75
2023-05-12T19:32:58.916Z,12.73
2023-05-12T19:35:01.010Z,12.64
2023-05-12T19:37:02.949Z,12.66
2023-05-12T19:39:04.642Z,12.70
2023-05-12T19:41:06.047Z,12.73
2023-05-12T19:43:10.857Z,12.72
2023-05-12T19:45:12.639Z,12.70
2023-05-12T19:47:14.237Z,12.66
2023-05-12T19:49:15.875Z,12.61
2023-05-12T19:51:17.323Z,12.62
2023-05-12T19:53:18.773Z,12.63
2023-05-12T19:55:20.905Z,12.62
2023-05-12T19:57:23.182Z,12.61
2023-05-12T19:59:24.844Z,12.58
2023-05-12T20:01:26.412Z,12.59
2023-05-12T20:03:27.951Z,12.57
2023-05-12T20:05:29.431Z,12.61
2023-05-12T20:07:30.970Z,12.56
2023-05-12T20:09:32.456Z,12.59
2023-05-12T20:11:33.974Z,12.55
2023-05-12T20:13:35.468Z,12.57
2023-05-12T20:15:36.969Z,12.52
2023-05-12T20:17:38.522Z,12.48
2023-05-12T20:19:40.113Z,12.47
2023-05-12T20:21:41.815Z,12.44
2023-05-12T20:23:43.574Z,12.48
2023-05-12T20:25:45.028Z,12.44
2023-05-12T20:27:46.736Z,12.42
2023-05-12T20:29:49.141Z,12.44
2023-05-12T20:31:51.189Z,12.44
2023-05-12T20:33:53.154Z,12.41
2023-05-12T20:35:54.603Z,12.44
2023-05-12T20:37:56.072Z,12.45
2023-05-12T20:39:57.598Z,12.33
2023-05-12T20:42:00.087Z,12.32
2023-05-12T20:44:01.829Z,12.37
2023-05-12T20:46:04.142Z,12.38
2023-05-12T20:48:05.866Z,12.42
2023-05-12T20:50:08.248Z,12.41
2023-05-12T20:52:09.749Z,12.36
2023-05-12T20:54:11.205Z,12.39
2023-05-12T20:56:13.124Z,12.43
2023-05-12T20:58:14.950Z,12.42
2023-05-12T21:00:16.533Z,12.39
2023-05-12T21:02:21.193Z,12.40
2023-05-12T21:04:22.780Z,12.38
2023-05-12T21:06:24.402Z,12.26
2023-05-12T21:08:26.166Z,12.22
2023-05-12T21:10:27.693Z,12.25
2023-05-12T21:12:29.379Z,12.13
2023-05-12T21:14:30.821Z,12.18
2023-05-12T21:16:32.338Z,12.19
2023-05-12T21:18:33.845Z,12.22
2023-05-12T21:20:35.451Z,12.13
2023-05-12T21:22:37.366Z,12.04
2023-05-12T21:24:39.549Z,11.85
2023-05-12T21:26:40.996Z,11.90
2023-05-12T21:28:42.435Z,11.91
2023-05-12T21:30:43.919Z,11.91
2023-05-12T21:32:45.466Z,11.97
2023-05-12T21:34:47.238Z,11.92
2023-05-12T21:36:48.909Z,12.00
2023-05-12T21:38:50.340Z,12.00
2023-05-12T21:40:52.633Z,12.05
2023-05-12T21:42:54.129Z,12.11
2023-05-12T21:44:55.692Z,12.16
2023-05-12T21:46:58.729Z,12.24
2023-05-12T21:49:00.396Z,12.32
2023-05-12T21:51:02.858Z,12.37
2023-05-12T21:53:04.415Z,12.40
2023-05-12T21:55:06.418Z,12.32
2023-05-12T21:57:07.942Z,12.31
2023-05-12T21:59:09.457Z,12.37
2023-05-12T22:01:10.987Z,12.43
2023-05-12T22:03:12.617Z,12.47
2023-05-12T22:05:14.962Z,12.51
2023-05-12T22:07:16.422Z,12.52
2023-05-12T22:09:18.062Z,12.49
2023-05-12T22:11:19.533Z,12.42
2023-05-12T22:13:21.009Z,12.39
2023-05-12T22:15:22.628Z,12.33
2023-05-12T22:17:24.156Z,12.26
2023-05-12T22:19:25.762Z,12.24
2023-05-12T22:21:27.439Z,12.24
2023-05-12T22:23:28.862Z,12.24
2023-05-12T22:25:30.464Z,12.20
2023-05-12T22:27:32.041Z,12.19
2023-05-12T22:29:33.483Z,12.09
2023-05-12T22:31:35.029Z,12.09
2023-05-12T22:33:36.596Z,12.06
2023-05-12T22:35:38.089Z,12.01
2023-05-12T22:37:39.653Z,11.96
2023-05-12T22:39:41.106Z,11.95
2023-05-12T22:41:42.685Z,11.91
2023-05-12T22:43:44.108Z,11.90
2023-05-12T22:45:49.137Z,11.89
2023-05-12T22:47:50.663Z,11.87
2023-05-12T22:49:52.128Z,11.85
2023-05-12T22:51:53.605Z,11.85
2023-05-12T22:53:55.082Z,11.73
2023-05-12T22:55:56.685Z,11.57
2023-05-12T22:57:59.792Z,11.51
2023-05-12T23:00:01.320Z,11.47
2023-05-12T23:02:02.818Z,11.45
2023-05-12T23:04:04.386Z,11.47
2023-05-12T23:06:06.179Z,11.41
2023-05-12T23:08:07.685Z,11.32
2023-05-12T23:10:09.201Z,11.25
2023-05-12T23:12:10.646Z,11.23
2023-05-12T23:14:12.093Z,11.22
2023-05-12T23:16:13.551Z,11.21
2023-05-12T23:18:14.990Z,11.18
2023-05-12T23:20:16.524Z,11.15
2023-05-12T23:22:18.111Z,11.16
2023-05-12T23:24:19.632Z,11.14
2023-05-12T23:26:22.322Z,11.09
2023-05-12T23:28:23.817Z,11.11
2023-05-12T23:30:25.459Z,11.06
2023-05-12T23:32:27.080Z,11.01
2023-05-12T23:34:28.880Z,11.02
2023-05-12T23:36:31.404Z,10.86
2023-05-12T23:38:32.990Z,10.69
2023-05-12T23:40:38.896Z,10.61
2023-05-12T23:42:40.414Z,10.56
2023-05-12T23:44:41.897Z,10.49
2023-05-12T23:46:43.490Z,10.42
2023-05-12T23:48:45.134Z,10.41
2023-05-12T23:50:46.565Z,10.36
2023-05-12T23:52:48.018Z,10.23
2023-05-12T23:54:49.550Z,10.21
2023-05-12T23:56:51.038Z,10.15
2023-05-12T23:58:52.491Z,10.07
